Crouseville, Maine
Current Conditions -  °F | °C
As of 6:15 AM on Sunday 23 Nov 2014 (Local Time) from KPQI Reporting Station
Broken Clouds Broken Clouds  
Wind Chill: 29°   Ceiling: 2600
Heat Index: 36°   Visibility: 10mi
Dew Point: 27°   Wind: 8mph
Humidity: 70%   Direction: 250°WSW
Pressure: 29.87"   Gusts: NA
Location:  46.75°N, 68.1°W
Report Text: KPQI 231115Z AUTO 25007KT 10SM BKN026 BKN050 02/M03 A2987 RMK AO1
Loading
Personal Weather Stations






























Interactive Weather Map New forecast layout! Learn more

10-Day Weather Forecast

Advertisements
Track Severe Weather on mobile